createdAt,value
2023-05-06T00:01:38.721Z,63.20
2023-05-06T00:04:06.161Z,63.60
2023-05-06T00:06:33.564Z,63.80
2023-05-06T00:09:00.802Z,64.40
2023-05-06T00:11:27.665Z,63.90
2023-05-06T00:13:54.451Z,64.50
2023-05-06T00:16:21.324Z,64.20
2023-05-06T00:18:48.290Z,64.50
2023-05-06T00:21:15.293Z,64.90
2023-05-06T00:23:42.016Z,64.80
2023-05-06T00:26:09.569Z,65.00
2023-05-06T00:28:36.439Z,65.10
2023-05-06T00:31:03.160Z,65.40
2023-05-06T00:33:30.529Z,65.20
2023-05-06T00:35:57.274Z,65.60
2023-05-06T00:38:24.077Z,66.30
2023-05-06T00:40:51.090Z,66.40
2023-05-06T00:43:18.038Z,66.40
2023-05-06T00:45:44.884Z,66.40
2023-05-06T00:48:11.734Z,67.50
2023-05-06T00:50:39.929Z,67.60
2023-05-06T00:53:08.141Z,67.60
2023-05-06T00:55:35.618Z,68.10
2023-05-06T00:58:02.900Z,69.40
2023-05-06T01:00:30.009Z,69.50
2023-05-06T01:02:56.939Z,71.00
2023-05-06T01:05:25.995Z,71.00
2023-05-06T01:07:53.366Z,71.50
2023-05-06T01:10:20.565Z,72.20
2023-05-06T01:12:56.206Z,72.90
2023-05-06T01:15:33.118Z,73.60
2023-05-06T01:18:02.048Z,74.30
2023-05-06T01:20:30.852Z,74.60
2023-05-06T01:22:57.697Z,75.50
2023-05-06T01:25:24.716Z,76.00
2023-05-06T01:27:51.500Z,76.70
2023-05-06T01:30:19.482Z,76.80
2023-05-06T01:32:52.364Z,77.50
2023-05-06T01:35:24.920Z,77.90
2023-05-06T01:37:52.929Z,78.20
2023-05-06T01:40:20.352Z,77.50
2023-05-06T01:42:47.602Z,79.30
2023-05-06T01:45:16.378Z,81.60
2023-05-06T01:47:44.127Z,82.10
2023-05-06T01:50:11.107Z,82.20
2023-05-06T01:52:37.917Z,83.30
2023-05-06T01:55:05.046Z,84.00
2023-05-06T01:57:31.878Z,84.70
2023-05-06T01:59:59.032Z,84.50
2023-05-06T02:02:25.974Z,84.80
2023-05-06T02:04:52.932Z,85.30
2023-05-06T02:07:20.008Z,86.20
2023-05-06T02:09:47.270Z,86.30
2023-05-06T02:12:14.064Z,86.90
2023-05-06T02:14:41.821Z,86.90
2023-05-06T02:17:08.762Z,86.90
2023-05-06T02:19:35.909Z,87.40
2023-05-06T02:22:02.726Z,87.40
2023-05-06T02:24:29.665Z,88.30
2023-05-06T02:26:56.374Z,88.90
2023-05-06T02:29:23.335Z,89.60
2023-05-06T02:31:50.618Z,89.40
2023-05-06T02:34:17.473Z,89.10
2023-05-06T02:36:44.173Z,89.80
2023-05-06T02:39:11.059Z,90.10
2023-05-06T02:41:37.778Z,90.30
2023-05-06T02:44:04.837Z,90.40
2023-05-06T02:46:32.024Z,90.30
2023-05-06T02:48:58.860Z,90.90
2023-05-06T02:51:25.680Z,91.00
2023-05-06T02:53:55.355Z,91.30
2023-05-06T02:56:22.132Z,91.30
2023-05-06T02:58:48.867Z,91.10
2023-05-06T03:01:15.797Z,91.90
2023-05-06T03:03:42.686Z,92.00
2023-05-06T03:06:09.598Z,92.20
2023-05-06T03:08:36.524Z,92.30
2023-05-06T03:11:05.055Z,92.40
2023-05-06T03:13:33.110Z,92.50
2023-05-06T03:16:00.061Z,92.40
2023-05-06T03:18:27.311Z,92.40
2023-05-06T03:20:54.548Z,92.50
2023-05-06T03:23:21.577Z,92.40
2023-05-06T03:25:49.182Z,92.50
2023-05-06T03:28:17.391Z,92.60
2023-05-06T03:30:45.648Z,93.00
2023-05-06T03:33:13.164Z,93.10
2023-05-06T03:35:40.173Z,93.00
2023-05-06T03:38:06.987Z,93.10
2023-05-06T03:40:49.905Z,93.20
2023-05-06T03:43:16.960Z,93.40
2023-05-06T03:45:46.212Z,93.40
2023-05-06T03:48:13.194Z,93.20
2023-05-06T03:50:42.844Z,93.30
2023-05-06T03:53:09.795Z,93.30
2023-05-06T03:55:39.890Z,93.10
2023-05-06T03:58:07.366Z,93.30
2023-05-06T04:00:34.213Z,93.40
2023-05-06T04:03:01.236Z,93.20
2023-05-06T04:05:39.099Z,93.20
2023-05-06T04:08:07.048Z,93.30
2023-05-06T04:10:37.460Z,93.30
2023-05-06T04:13:07.515Z,93.40
2023-05-06T04:15:44.250Z,93.30
2023-05-06T04:18:19.211Z,93.70
2023-05-06T04:20:54.239Z,93.50
2023-05-06T04:23:21.971Z,93.60
2023-05-06T04:25:49.600Z,93.60
2023-05-06T04:28:18.134Z,93.20
2023-05-06T04:30:49.524Z,92.50
2023-05-06T04:33:16.988Z,92.30
2023-05-06T04:35:50.563Z,92.50
2023-05-06T04:38:17.582Z,92.40
2023-05-06T04:40:44.589Z,91.70
2023-05-06T04:43:12.150Z,91.40
2023-05-06T04:45:40.226Z,91.10
2023-05-06T04:48:09.045Z,90.80
2023-05-06T04:50:35.840Z,89.50
2023-05-06T04:53:02.740Z,87.80
2023-05-06T04:55:29.600Z,87.00
2023-05-06T04:57:56.455Z,83.90
2023-05-06T05:00:23.259Z,81.00
2023-05-06T05:02:50.099Z,77.80
2023-05-06T05:05:18.101Z,76.70
2023-05-06T05:07:47.969Z,74.90
2023-05-06T05:10:15.338Z,74.30
2023-05-06T05:12:42.751Z,73.80
2023-05-06T05:15:09.879Z,73.50
2023-05-06T05:17:37.930Z,73.10
2023-05-06T05:20:06.649Z,71.90
2023-05-06T05:22:33.519Z,70.50
2023-05-06T05:25:01.086Z,70.20
2023-05-06T05:27:28.054Z,69.10
2023-05-06T05:29:57.340Z,68.60
2023-05-06T05:32:24.207Z,68.20
2023-05-06T05:34:51.010Z,68.20
2023-05-06T05:37:18.220Z,67.30
2023-05-06T05:39:45.400Z,66.50
2023-05-06T05:42:13.768Z,66.80
2023-05-06T05:44:42.838Z,64.90
2023-05-06T05:47:12.563Z,63.40
2023-05-06T05:49:39.872Z,62.30
2023-05-06T05:52:07.847Z,61.70
2023-05-06T05:54:34.584Z,61.70
2023-05-06T05:57:01.739Z,62.10
2023-05-06T05:59:29.187Z,61.90
2023-05-06T06:02:00.708Z,61.20
2023-05-06T06:04:28.177Z,60.10
2023-05-06T06:06:57.838Z,59.60
2023-05-06T06:09:25.373Z,58.50
2023-05-06T06:11:52.656Z,58.00
2023-05-06T06:14:19.858Z,58.40
2023-05-06T06:16:48.756Z,57.60
2023-05-06T06:19:15.976Z,57.20
2023-05-06T06:21:43.267Z,56.70
2023-05-06T06:24:10.101Z,56.40
2023-05-06T06:26:36.938Z,56.20
2023-05-06T06:29:03.809Z,56.30
2023-05-06T06:31:33.235Z,56.10
2023-05-06T06:34:01.289Z,56.50
2023-05-06T06:36:28.078Z,55.90
2023-05-06T06:38:54.794Z,55.70
2023-05-06T06:41:21.811Z,54.80
2023-05-06T06:43:48.734Z,53.80
2023-05-06T06:46:19.252Z,54.00
2023-05-06T06:48:45.989Z,54.30
2023-05-06T06:51:12.811Z,54.30
2023-05-06T06:53:39.915Z,53.50
2023-05-06T06:56:09.895Z,53.20
2023-05-06T06:58:36.688Z,52.40
2023-05-06T07:01:03.781Z,52.00
2023-05-06T07:03:30.761Z,51.90
2023-05-06T07:05:57.568Z,51.30
2023-05-06T07:08:24.320Z,51.40
2023-05-06T07:10:51.124Z,51.90
2023-05-06T07:13:18.107Z,50.90
2023-05-06T07:15:44.912Z,49.00
2023-05-06T07:18:11.926Z,48.60
2023-05-06T07:20:39.049Z,47.00
2023-05-06T07:23:06.090Z,46.60
2023-05-06T07:25:32.838Z,47.40
2023-05-06T07:27:59.776Z,46.00
2023-05-06T07:30:26.725Z,45.70
2023-05-06T07:32:53.650Z,45.80
2023-05-06T07:35:20.604Z,44.70
2023-05-06T07:37:47.700Z,45.00
2023-05-06T07:40:14.653Z,45.00
2023-05-06T07:42:42.990Z,43.60
2023-05-06T07:45:10.478Z,45.40
2023-05-06T07:47:37.700Z,44.60
2023-05-06T07:50:07.081Z,44.20
2023-05-06T07:52:34.112Z,42.80
2023-05-06T07:55:01.019Z,44.10
2023-05-06T07:57:28.194Z,43.40
2023-05-06T07:59:55.150Z,44.40
2023-05-06T08:02:22.164Z,42.80
2023-05-06T08:04:51.036Z,41.90
2023-05-06T08:07:18.666Z,41.90
2023-05-06T08:09:45.464Z,42.10
2023-05-06T08:12:12.310Z,41.00
2023-05-06T08:14:39.131Z,41.90
2023-05-06T08:17:05.991Z,42.60
2023-05-06T08:19:32.730Z,42.10
2023-05-06T08:21:59.471Z,42.40
2023-05-06T08:24:26.808Z,41.80
2023-05-06T08:26:53.588Z,42.30
2023-05-06T08:29:20.432Z,41.70
2023-05-06T08:31:47.394Z,42.10
2023-05-06T08:34:14.245Z,42.70
2023-05-06T08:36:41.064Z,41.50
2023-05-06T08:39:07.884Z,41.80
2023-05-06T08:41:38.234Z,41.80
2023-05-06T08:44:05.698Z,41.60
2023-05-06T08:46:32.837Z,40.00
2023-05-06T08:48:59.960Z,41.00
2023-05-06T08:51:28.864Z,40.20
2023-05-06T08:53:56.261Z,40.90
2023-05-06T08:56:24.339Z,39.80
2023-05-06T08:58:51.790Z,40.30
2023-05-06T09:01:18.787Z,39.20
2023-05-06T09:03:47.040Z,38.80
2023-05-06T09:06:13.860Z,37.30
2023-05-06T09:08:41.056Z,37.40
2023-05-06T09:11:23.189Z,38.20
2023-05-06T09:13:50.811Z,39.40
2023-05-06T09:16:30.564Z,39.10
2023-05-06T09:18:57.480Z,38.00
2023-05-06T09:21:50.705Z,37.90
2023-05-06T09:24:17.918Z,36.50
2023-05-06T09:26:45.572Z,36.90
2023-05-06T09:29:12.397Z,36.20
2023-05-06T09:31:42.939Z,37.20
2023-05-06T09:34:10.054Z,35.40
2023-05-06T09:36:37.030Z,36.60
2023-05-06T09:39:04.761Z,38.00
2023-05-06T09:41:32.174Z,36.10
2023-05-06T09:43:59.441Z,34.30
2023-05-06T09:46:28.011Z,35.70
2023-05-06T09:48:56.561Z,37.00
2023-05-06T09:51:23.258Z,36.30
2023-05-06T09:53:51.462Z,36.10
2023-05-06T09:56:18.663Z,36.30
2023-05-06T09:58:46.082Z,33.90
2023-05-06T10:01:25.158Z,33.10
2023-05-06T10:04:01.310Z,34.50
2023-05-06T10:06:28.285Z,33.40
2023-05-06T10:08:55.842Z,34.40
2023-05-06T10:11:23.223Z,36.80
2023-05-06T10:13:50.618Z,35.90
2023-05-06T10:16:17.882Z,36.20
2023-05-06T10:18:45.776Z,35.60
2023-05-06T10:21:17.329Z,36.20
2023-05-06T10:23:49.222Z,33.70
2023-05-06T10:26:16.991Z,32.60
2023-05-06T10:28:46.810Z,35.50
2023-05-06T10:31:14.051Z,34.20
2023-05-06T10:33:42.514Z,32.70
2023-05-06T10:36:21.519Z,33.80
2023-05-06T10:39:00.471Z,34.20
2023-05-06T10:41:28.228Z,35.30
2023-05-06T10:43:57.049Z,34.20
2023-05-06T10:46:26.132Z,35.80
2023-05-06T10:49:04.938Z,35.20
2023-05-06T10:51:32.443Z,33.10
2023-05-06T10:53:59.277Z,32.70
2023-05-06T10:56:26.514Z,33.40
2023-05-06T10:58:54.579Z,32.50
2023-05-06T11:01:28.416Z,32.90
2023-05-06T11:03:55.489Z,32.20
2023-05-06T11:06:35.126Z,32.60
2023-05-06T11:09:04.339Z,33.80
2023-05-06T11:12:09.589Z,31.60
2023-05-06T11:14:38.549Z,32.30
2023-05-06T11:17:25.802Z,33.10
2023-05-06T11:20:12.622Z,33.50
2023-05-06T11:22:40.552Z,33.00
2023-05-06T11:25:07.326Z,33.60
2023-05-06T11:27:34.163Z,33.00
2023-05-06T11:30:01.003Z,32.80
2023-05-06T11:32:28.982Z,32.10
2023-05-06T11:34:58.930Z,32.60
2023-05-06T11:37:26.437Z,31.20
2023-05-06T11:39:53.600Z,32.20
2023-05-06T11:42:27.096Z,33.50
2023-05-06T11:44:57.293Z,33.20
2023-05-06T11:47:24.301Z,33.10
2023-05-06T11:49:52.174Z,31.70
2023-05-06T11:52:20.806Z,32.40
2023-05-06T11:54:49.640Z,33.20
2023-05-06T11:57:17.176Z,32.70
2023-05-06T11:59:43.946Z,34.10
2023-05-06T12:02:12.824Z,32.50
2023-05-06T12:04:41.398Z,32.20
2023-05-06T12:07:09.443Z,33.50
2023-05-06T12:09:39.390Z,33.70
2023-05-06T12:12:07.070Z,33.60
2023-05-06T12:14:34.053Z,35.00
2023-05-06T12:17:00.852Z,34.60
2023-05-06T12:19:28.944Z,33.00
2023-05-06T12:21:55.848Z,32.50
2023-05-06T12:24:31.969Z,31.20
2023-05-06T12:26:58.880Z,31.50
2023-05-06T12:29:25.638Z,31.20
2023-05-06T12:32:06.386Z,31.40
2023-05-06T12:34:40.077Z,31.50
2023-05-06T12:37:07.571Z,34.10
2023-05-06T12:39:38.240Z,34.10
2023-05-06T12:42:05.960Z,35.00
2023-05-06T12:44:32.818Z,33.10
2023-05-06T12:47:00.597Z,33.20
2023-05-06T12:49:27.674Z,34.90
2023-05-06T12:52:07.430Z,32.30
2023-05-06T12:54:34.262Z,30.10
2023-05-06T12:57:01.575Z,32.80
2023-05-06T12:59:28.354Z,34.30
2023-05-06T13:01:55.176Z,34.80
2023-05-06T13:04:22.578Z,34.10
2023-05-06T13:06:50.134Z,30.40
2023-05-06T13:09:17.341Z,30.50
2023-05-06T13:11:44.413Z,30.90
2023-05-06T13:14:11.196Z,31.00
2023-05-06T13:16:38.428Z,32.10
2023-05-06T13:19:05.581Z,33.70
2023-05-06T13:21:32.426Z,34.30
2023-05-06T13:23:59.253Z,33.30
2023-05-06T13:26:26.718Z,34.10
2023-05-06T13:28:53.612Z,33.50
2023-05-06T13:31:21.910Z,31.00
2023-05-06T13:33:48.924Z,30.20
2023-05-06T13:36:15.792Z,30.30
2023-05-06T13:38:42.468Z,30.00
2023-05-06T13:41:09.385Z,30.40
2023-05-06T13:43:36.197Z,32.30
2023-05-06T13:46:02.970Z,30.90
2023-05-06T13:48:29.835Z,30.20
2023-05-06T13:50:56.635Z,31.80
2023-05-06T13:53:23.380Z,32.50
2023-05-06T13:55:50.252Z,30.90
2023-05-06T13:58:17.406Z,29.70
2023-05-06T14:00:44.174Z,29.80
2023-05-06T14:03:11.017Z,31.80
2023-05-06T14:05:37.807Z,31.70
2023-05-06T14:08:04.632Z,30.00
2023-05-06T14:10:31.463Z,29.20
2023-05-06T14:12:58.286Z,29.10
2023-05-06T14:15:25.106Z,29.60
2023-05-06T14:17:52.201Z,29.30
2023-05-06T14:20:19.042Z,29.90
2023-05-06T14:22:45.788Z,32.00
2023-05-06T14:25:13.358Z,30.90
2023-05-06T14:27:40.268Z,31.90
2023-05-06T14:30:09.350Z,31.30
2023-05-06T14:32:36.953Z,30.00
2023-05-06T14:35:04.139Z,29.00
2023-05-06T14:37:30.980Z,30.50
2023-05-06T14:39:57.820Z,30.50
2023-05-06T14:42:24.577Z,30.70
2023-05-06T14:44:51.321Z,29.40
2023-05-06T14:47:18.248Z,29.10
2023-05-06T14:49:45.060Z,29.80
2023-05-06T14:52:11.878Z,29.50
2023-05-06T14:54:42.470Z,30.40
2023-05-06T14:57:09.652Z,31.40
2023-05-06T14:59:36.529Z,31.80
2023-05-06T15:02:03.774Z,31.40
2023-05-06T15:04:30.855Z,31.60
2023-05-06T15:06:58.018Z,30.60
2023-05-06T15:09:25.552Z,30.00
2023-05-06T15:11:52.387Z,29.70
2023-05-06T15:14:19.462Z,29.10
2023-05-06T15:16:46.651Z,28.60
2023-05-06T15:19:13.547Z,29.20
2023-05-06T15:21:40.508Z,29.50
2023-05-06T15:24:07.501Z,29.50
2023-05-06T15:26:34.341Z,30.60
2023-05-06T15:29:01.073Z,29.20
2023-05-06T15:31:27.949Z,30.60
2023-05-06T15:33:54.782Z,30.00
2023-05-06T15:36:21.622Z,29.30
2023-05-06T15:38:51.305Z,29.80
2023-05-06T15:41:18.599Z,29.20
2023-05-06T15:43:45.960Z,30.00
2023-05-06T15:46:12.990Z,30.40
2023-05-06T15:48:39.744Z,31.10
2023-05-06T15:51:06.606Z,28.90
2023-05-06T15:53:33.265Z,29.00
2023-05-06T15:56:13.102Z,29.70
2023-05-06T15:58:44.708Z,29.50
2023-05-06T16:01:11.791Z,30.40
2023-05-06T16:03:41.208Z,30.10
2023-05-06T16:06:08.753Z,29.60
2023-05-06T16:08:35.941Z,30.10
2023-05-06T16:11:02.815Z,28.80
2023-05-06T16:13:29.586Z,30.70
2023-05-06T16:15:56.765Z,29.70
2023-05-06T16:18:23.660Z,29.00
2023-05-06T16:20:50.589Z,30.50
2023-05-06T16:23:17.497Z,30.10
2023-05-06T16:25:44.225Z,29.60
2023-05-06T16:28:11.033Z,28.70
2023-05-06T16:30:37.906Z,29.80
2023-05-06T16:33:05.241Z,31.40
2023-05-06T16:35:32.395Z,28.70
2023-05-06T16:37:59.250Z,28.60
2023-05-06T16:40:27.772Z,29.40
2023-05-06T16:42:55.176Z,29.10
2023-05-06T16:45:22.063Z,29.60
2023-05-06T16:47:48.977Z,29.40
2023-05-06T16:50:15.869Z,29.70
2023-05-06T16:52:42.875Z,29.60
2023-05-06T16:55:09.806Z,30.00
2023-05-06T16:57:36.656Z,29.30
2023-05-06T17:00:07.935Z,29.70
2023-05-06T17:02:35.069Z,29.40
2023-05-06T17:05:02.245Z,31.50
2023-05-06T17:07:29.203Z,31.60
2023-05-06T17:09:56.084Z,30.80
2023-05-06T17:12:23.925Z,29.10
2023-05-06T17:14:50.984Z,29.90
2023-05-06T17:17:19.640Z,29.50
2023-05-06T17:19:47.697Z,29.90
2023-05-06T17:22:14.558Z,30.10
2023-05-06T17:24:41.356Z,29.90
2023-05-06T17:27:08.119Z,30.50
2023-05-06T17:29:34.884Z,29.90
2023-05-06T17:32:01.910Z,30.10
2023-05-06T17:34:28.696Z,30.40
2023-05-06T17:36:56.062Z,30.70
2023-05-06T17:39:22.967Z,31.20
2023-05-06T17:41:49.807Z,30.80
2023-05-06T17:44:18.291Z,32.20
2023-05-06T17:46:48.243Z,31.30
2023-05-06T17:49:15.736Z,31.60
2023-05-06T17:51:45.271Z,31.60
2023-05-06T17:54:12.614Z,32.40
2023-05-06T17:56:39.415Z,33.00
2023-05-06T17:59:06.456Z,32.80
2023-05-06T18:01:33.203Z,32.60
2023-05-06T18:04:00.079Z,32.50
2023-05-06T18:06:27.228Z,32.90
2023-05-06T18:08:53.896Z,32.30
2023-05-06T18:11:20.741Z,33.20
2023-05-06T18:13:47.517Z,33.20
2023-05-06T18:16:14.324Z,33.40
2023-05-06T18:18:41.137Z,33.30
2023-05-06T18:21:07.886Z,32.70
2023-05-06T18:23:34.692Z,32.70
2023-05-06T18:26:03.646Z,33.50
2023-05-06T18:28:30.812Z,34.10
2023-05-06T18:30:57.743Z,33.90
2023-05-06T18:33:24.573Z,34.50
2023-05-06T18:35:51.353Z,33.40
2023-05-06T18:38:18.959Z,33.50
2023-05-06T18:40:46.807Z,33.80
2023-05-06T18:43:13.570Z,34.30
2023-05-06T18:45:41.197Z,34.50
2023-05-06T18:48:08.178Z,34.30
2023-05-06T18:50:35.670Z,34.90
2023-05-06T18:53:02.530Z,36.30
2023-05-06T18:55:29.998Z,35.80
2023-05-06T18:57:57.028Z,36.10
2023-05-06T19:00:24.308Z,35.70
2023-05-06T19:02:51.220Z,35.00
2023-05-06T19:05:18.811Z,34.70
2023-05-06T19:07:45.594Z,36.20
2023-05-06T19:10:13.872Z,35.50
2023-05-06T19:12:41.722Z,35.80
2023-05-06T19:15:09.231Z,36.00
2023-05-06T19:17:36.204Z,36.20
2023-05-06T19:20:03.172Z,36.50
2023-05-06T19:22:29.916Z,36.70
2023-05-06T19:24:56.701Z,36.70
2023-05-06T19:27:24.638Z,36.90
2023-05-06T19:29:51.480Z,37.10
2023-05-06T19:32:18.327Z,37.30
2023-05-06T19:34:45.655Z,37.70
2023-05-06T19:37:12.399Z,38.40
2023-05-06T19:39:42.699Z,38.90
2023-05-06T19:42:09.512Z,39.10
2023-05-06T19:44:36.411Z,39.10
2023-05-06T19:47:03.096Z,39.00
2023-05-06T19:49:32.184Z,39.00
2023-05-06T19:51:59.121Z,39.20
2023-05-06T19:54:27.030Z,39.60
2023-05-06T19:56:53.845Z,40.10
2023-05-06T19:59:20.734Z,40.60
2023-05-06T20:01:47.635Z,40.40
2023-05-06T20:04:14.537Z,41.00
2023-05-06T20:06:41.272Z,41.60
2023-05-06T20:09:08.015Z,42.10
2023-05-06T20:11:34.947Z,41.90
2023-05-06T20:14:01.826Z,41.40
2023-05-06T20:16:28.575Z,41.30
2023-05-06T20:18:55.465Z,41.10
2023-05-06T20:21:22.220Z,40.80
2023-05-06T20:23:48.985Z,40.50
2023-05-06T20:26:15.801Z,40.60
2023-05-06T20:28:42.567Z,41.20
2023-05-06T20:31:09.461Z,40.50
2023-05-06T20:33:36.341Z,40.10
2023-05-06T20:36:04.008Z,40.00
2023-05-06T20:38:30.898Z,40.30
2023-05-06T20:40:59.000Z,41.40
2023-05-06T20:43:25.918Z,42.20
2023-05-06T20:45:52.753Z,42.20
2023-05-06T20:48:19.747Z,42.30
2023-05-06T20:50:46.557Z,42.60
2023-05-06T20:53:13.260Z,42.90
2023-05-06T20:55:40.088Z,43.10
2023-05-06T20:58:07.038Z,43.80
2023-05-06T21:00:33.845Z,43.40
2023-05-06T21:03:00.851Z,43.20
2023-05-06T21:05:27.652Z,43.30
2023-05-06T21:07:54.591Z,43.30
2023-05-06T21:10:21.367Z,43.60
2023-05-06T21:12:48.708Z,43.70
2023-05-06T21:15:15.523Z,44.10
2023-05-06T21:17:42.492Z,45.30
2023-05-06T21:20:09.536Z,44.90
2023-05-06T21:22:36.383Z,44.40
2023-05-06T21:25:03.439Z,45.00
2023-05-06T21:27:30.340Z,45.10
2023-05-06T21:29:57.123Z,45.20
2023-05-06T21:32:24.003Z,45.20
2023-05-06T21:34:50.892Z,45.30
2023-05-06T21:37:17.945Z,45.70
2023-05-06T21:39:44.710Z,46.30
2023-05-06T21:42:11.519Z,46.80
2023-05-06T21:44:38.408Z,46.90
2023-05-06T21:47:05.458Z,48.00
2023-05-06T21:49:32.167Z,48.00
2023-05-06T21:51:59.031Z,48.30
2023-05-06T21:54:26.408Z,48.50
2023-05-06T21:56:53.153Z,48.60
2023-05-06T21:59:19.970Z,48.70
2023-05-06T22:01:46.827Z,48.80
2023-05-06T22:04:14.768Z,49.40
2023-05-06T22:06:41.996Z,49.90
2023-05-06T22:09:09.811Z,50.30
2023-05-06T22:11:38.269Z,50.30
2023-05-06T22:14:06.865Z,50.00
2023-05-06T22:16:35.364Z,49.80
2023-05-06T22:19:03.882Z,50.00
2023-05-06T22:21:32.013Z,50.10
2023-05-06T22:23:58.874Z,50.50
2023-05-06T22:26:27.994Z,50.30
2023-05-06T22:28:57.712Z,50.70
2023-05-06T22:31:25.113Z,50.80
2023-05-06T22:33:55.289Z,52.60
2023-05-06T22:36:22.435Z,52.70
2023-05-06T22:38:49.235Z,53.00
2023-05-06T22:41:17.213Z,52.70
2023-05-06T22:43:44.003Z,52.40
2023-05-06T22:46:10.896Z,52.20
2023-05-06T22:48:37.692Z,52.50
2023-05-06T22:51:04.651Z,52.40
2023-05-06T22:53:32.725Z,51.90
2023-05-06T22:55:59.626Z,52.90
2023-05-06T22:58:26.413Z,52.60
2023-05-06T23:00:53.551Z,53.00
2023-05-06T23:03:22.448Z,53.40
2023-05-06T23:05:49.557Z,53.20
2023-05-06T23:08:16.550Z,52.80
2023-05-06T23:10:43.460Z,53.40
2023-05-06T23:13:11.481Z,53.10
2023-05-06T23:15:38.332Z,52.80
2023-05-06T23:18:05.082Z,52.90
2023-05-06T23:20:32.429Z,53.50
2023-05-06T23:22:59.339Z,53.40
2023-05-06T23:25:27.229Z,53.30
2023-05-06T23:27:54.024Z,53.90
2023-05-06T23:30:20.834Z,53.40
2023-05-06T23:32:47.629Z,54.00
2023-05-06T23:35:14.465Z,53.90
2023-05-06T23:37:41.311Z,54.30
2023-05-06T23:40:08.280Z,54.90
2023-05-06T23:42:35.074Z,55.10
2023-05-06T23:45:01.833Z,54.80
2023-05-06T23:47:28.767Z,55.00
2023-05-06T23:49:55.666Z,55.00
2023-05-06T23:52:22.507Z,54.80
2023-05-06T23:54:49.320Z,54.80
2023-05-06T23:57:16.182Z,54.90
2023-05-06T23:59:42.968Z,55.20
